MSC Orchestra — 3EJF3 — position and weather

sailwx.info

Track history (hours):
 
Tides and Currents Weather Stations Pressure Air Temp Water Temp Dewpoint Dewpoint Depression Visibility Wind Speed Wind Dir Waves Ship Positions

MSC Orchestra

Last reported at 2018-Apr-19 06:59 UTC. Time now 2018-Apr-19 11:27 UTC.
Position N 43°21' E 005°20'.

Length 294 m; draft 7.8 m.

Type: Ship. MMSI: 372497000.

Date/timePositionNaut miles runAvg speedWind from/ knotsBaromVisibWave heightAir tempDewpointWater temp
2018-Apr-19 06:59N 43°21' E 005°20'0 0.0
2018-Apr-19 05:28N 43°21' E 005°20'0 0.2
2018-Apr-19 04:59N 43°21' E 005°20'2 3.4
2018-Apr-19 04:30N 43°21' E 005°18'611.7
2018-Apr-19 04:00N 43°15' E 005°15'8513.4
2018-Apr-18 21:42N 43°09' E 007°11'318.3
2018-Apr-18 21:30N 43°12' E 007°14'918.5
2018-Apr-18 21:00N 43°17' E 007°24'1018.1
2018-Apr-18 20:27N 43°23' E 007°36'1518.6
2018-Apr-18 19:39N 43°31' E 007°53'318.7
2018-Apr-18 19:29N 43°33' E 007°57'918.4
2018-Apr-18 19:00N 43°38' E 008°07'1018.6
2018-Apr-18 18:29N 43°43' E 008°18'918.8
2018-Apr-18 18:00N 43°50' E 008°26'918.8
2018-Apr-18 17:30N 43°58' E 008°34'918.4
2018-Apr-18 17:00N 44°05' E 008°42'918.6
2018-Apr-18 16:30N 44°12' E 008°50'918.2
2018-Apr-18 16:00N 44°19' E 008°57'611.0
2018-Apr-18 15:30N 44°24' E 008°55'0 0.3
2018-Apr-18 14:55N 44°25' E 008°55'0 0.0
2018-Apr-18 14:30N 44°25' E 008°55'0 0.0
2018-Apr-18 14:00N 44°25' E 008°55'0 0.0
2018-Apr-18 13:30N 44°25' E 008°55'0 0.0
2018-Apr-18 13:00N 44°25' E 008°55'0 0.0
2018-Apr-18 12:30N 44°25' E 008°55'0 0.0
2018-Apr-18 11:59N 44°25' E 008°55'0 0.0
2018-Apr-18 11:29N 44°25' E 008°55'0 0.0
2018-Apr-18 10:59N 44°25' E 008°55'0 0.0
2018-Apr-18 10:29N 44°25' E 008°55'0 0.0
2018-Apr-18 09:58N 44°25' E 008°55'0 0.0
2018-Apr-18 09:28N 44°25' E 008°55'0 0.0
2018-Apr-18 08:58N 44°25' E 008°55'0 0.0
2018-Apr-18 08:28N 44°25' E 008°55'0 0.0
2018-Apr-18 07:58N 44°25' E 008°55'0 0.0
2018-Apr-18 07:30N 44°25' E 008°55'0 0.0
2018-Apr-18 07:00N 44°25' E 008°55'0 0.0
2018-Apr-18 06:30N 44°25' E 008°55'1 1.1
2018-Apr-18 06:00N 44°24' E 008°55'2 3.9
2018-Apr-18 05:30N 44°23' E 008°57'4 8.7
2018-Apr-18 05:00N 44°19' E 008°60'4 9.0
2018-Apr-18 04:30N 44°15' E 009°03'5 9.4
2018-Apr-18 04:00N 44°11' E 009°06'5 9.5
2018-Apr-18 03:30N 44°07' E 009°10'4 7.6
2018-Apr-18 03:00N 44°04' E 009°12'4 7.3
2018-Apr-18 02:30N 44°00' E 009°15'4 7.4
2018-Apr-18 02:00N 43°57' E 009°17'4 7.7
2018-Apr-18 01:30N 43°54' E 009°20'4 7.7
2018-Apr-18 01:00N 43°50' E 009°22'4 7.9
2018-Apr-18 00:30N 43°47' E 009°25'4 8.0
2018-Apr-18 00:00N 43°44' E 009°28'4 7.9
2018-Apr-17 23:30N 43°40' E 009°31'4 7.9
2018-Apr-17 23:00N 43°37' E 009°34'4 7.5
2018-Apr-17 22:30N 43°34' E 009°36'4 7.4
2018-Apr-17 22:00N 43°30' E 009°39'4 7.3
2018-Apr-17 21:30N 43°27' E 009°42'4 7.7
2018-Apr-17 21:00N 43°24' E 009°44'4 7.9
2018-Apr-17 20:30N 43°21' E 009°47'4 7.3
2018-Apr-17 20:00N 43°18' E 009°51'4 7.3
2018-Apr-17 19:30N 43°19' E 009°56'4 7.7
2018-Apr-17 19:00N 43°20' E 010°00'4 7.8
2018-Apr-17 18:30N 43°23' E 010°04'4 7.7
2018-Apr-17 18:00N 43°26' E 010°07'4 8.0
2018-Apr-17 17:30N 43°29' E 010°10'4 7.7
2018-Apr-17 17:00N 43°32' E 010°15'3 4.8
2018-Apr-17 16:28N 43°33' E 010°18'0 0.0
2018-Apr-17 16:00N 43°33' E 010°18'0 0.0
2018-Apr-17 15:30N 43°33' E 010°18'0 0.0
2018-Apr-17 15:00N 43°33' E 010°18'0 0.0
2018-Apr-17 14:30N 43°33' E 010°18'0 0.0
2018-Apr-17 13:59N 43°33' E 010°18'0 0.0
2018-Apr-17 13:29N 43°33' E 010°18'0 0.0
2018-Apr-17 12:59N 43°33' E 010°18'0 0.0
2018-Apr-17 12:29N 43°33' E 010°18'0 0.0
2018-Apr-17 11:59N 43°33' E 010°18'0 0.0
2018-Apr-17 11:28N 43°33' E 010°18'0 0.0
2018-Apr-17 10:58N 43°33' E 010°18'0 0.0
2018-Apr-17 10:28N 43°33' E 010°18'0 0.0
2018-Apr-17 09:58N 43°33' E 010°18'0 0.0
2018-Apr-17 09:31N 43°33' E 010°18'0 0.0
2018-Apr-17 08:57N 43°33' E 010°18'0 0.0
2018-Apr-17 08:30N 43°33' E 010°18'0 0.0
2018-Apr-17 08:00N 43°33' E 010°18'0 0.0
2018-Apr-17 07:30N 43°33' E 010°18'0 0.0
2018-Apr-17 06:59N 43°33' E 010°18'0 0.0
2018-Apr-17 06:29N 43°33' E 010°18'0 0.0
2018-Apr-17 05:59N 43°33' E 010°18'0 0.4
2018-Apr-17 05:31N 43°33' E 010°18'3 6.8
2018-Apr-17 05:00N 43°31' E 010°15'510.8
2018-Apr-17 04:30N 43°26' E 010°11'611.6
2018-Apr-17 04:01N 43°20' E 010°10'713.9
2018-Apr-17 03:30N 43°13' E 010°08'713.7
2018-Apr-17 03:00N 43°07' E 010°06'713.6
2018-Apr-17 02:30N 42°60' E 010°04'612.9
2018-Apr-17 02:00N 42°54' E 010°03'713.4
2018-Apr-17 01:30N 42°47' E 010°02'713.1
2018-Apr-17 01:01N 42°41' E 010°06'913.8
2018-Apr-17 00:22N 42°35' E 010°15'513.5
2018-Apr-17 00:00N 42°32' E 010°19'713.5
2018-Apr-16 23:29N 42°27' E 010°27'713.6
2018-Apr-16 22:59N 42°22' E 010°33'713.6
2018-Apr-16 22:30N 42°18' E 010°39'814.5
2018-Apr-16 21:59N 42°11' E 010°44'713.6
2018-Apr-16 21:27N 42°04' E 010°48'512.1
2018-Apr-16 21:00N 42°01' E 010°54'612.0
2018-Apr-16 20:30N 41°60' E 011°02'133 5.4
2018-Apr-15 19:50N 40°43' E 013°26'513.5
2018-Apr-15 19:30N 40°41' E 013°32'813.5
2018-Apr-15 18:54N 40°39' E 013°43'513.3
2018-Apr-15 18:30N 40°38' E 013°49'713.3
2018-Apr-15 18:00N 40°37' E 013°58'612.8
2018-Apr-15 17:30N 40°37' E 014°06'713.3
2018-Apr-15 17:00N 40°42' E 014°11'713.1
2018-Apr-15 16:30N 40°48' E 014°16'3 5.5
2018-Apr-15 16:00N 40°50' E 014°16'0 0.0
2018-Apr-15 15:24N 40°50' E 014°16'0 0.0
2018-Apr-15 14:59N 40°50' E 014°16'0 0.0
2018-Apr-15 14:29N 40°50' E 014°16'0 0.0
2018-Apr-15 13:59N 40°50' E 014°16'0 0.0
2018-Apr-15 13:26N 40°50' E 014°16'0 0.0
2018-Apr-15 12:52N 40°50' E 014°16'0 0.0
2018-Apr-15 12:28N 40°50' E 014°16'0 0.0
2018-Apr-15 11:58N 40°50' E 014°16'0 0.0
2018-Apr-15 11:25N 40°50' E 014°16'0 0.0
2018-Apr-15 10:55N 40°50' E 014°16'0 0.0
2018-Apr-15 10:30N 40°50' E 014°16'0 0.0
2018-Apr-15 10:00N 40°50' E 014°16'0 0.0
2018-Apr-15 09:30N 40°50' E 014°16'0 0.0
2018-Apr-15 09:00N 40°50' E 014°16'0 0.0
2018-Apr-15 08:24N 40°50' E 014°16'0 0.0
2018-Apr-15 07:53N 40°50' E 014°16'0 0.0
2018-Apr-15 07:20N 40°50' E 014°16'0 0.0
2018-Apr-15 06:59N 40°50' E 014°16'0 0.0
2018-Apr-15 06:26N 40°50' E 014°16'0 0.0
2018-Apr-15 06:00N 40°50' E 014°16'0 0.3
2018-Apr-15 05:30N 40°50' E 014°16'2 3.0
2018-Apr-15 05:00N 40°49' E 014°17'612.0
2018-Apr-15 04:30N 40°44' E 014°14'713.7
2018-Apr-15 04:00N 40°38' E 014°08'612.0
2018-Apr-15 03:30N 40°32' E 014°07'713.5
2018-Apr-15 03:00N 40°26' E 014°12'713.6
2018-Apr-15 02:30N 40°20' E 014°16'713.6
2018-Apr-15 02:00N 40°14' E 014°20'713.7
2018-Apr-15 01:29N 40°08' E 014°24'713.5
2018-Apr-15 00:59N 40°02' E 014°29'7414.5
2018-Apr-14 19:53N 38°57' E 015°15'614.1
2018-Apr-14 19:27N 38°52' E 015°18'614.4
2018-Apr-14 19:00N 38°46' E 015°23'815.2
2018-Apr-14 18:30N 38°40' E 015°28'815.6
2018-Apr-14 18:00N 38°33' E 015°33'815.5
2018-Apr-14 17:30N 38°26' E 015°38'815.3
2018-Apr-14 17:00N 38°20' E 015°43'713.1
2018-Apr-14 16:30N 38°15' E 015°39'5 9.2
2018-Apr-14 15:57N 38°12' E 015°33'0 0.0
2018-Apr-14 15:27N 38°12' E 015°33'0 0.0
2018-Apr-14 14:57N 38°12' E 015°33'0 0.0
2018-Apr-14 14:27N 38°12' E 015°33'0 0.0
2018-Apr-14 13:57N 38°12' E 015°33'0 0.0
2018-Apr-14 13:26N 38°12' E 015°33'0 0.0
2018-Apr-14 12:56N 38°12' E 015°33'0 0.0
2018-Apr-14 12:20N 38°12' E 015°33'0 0.0
2018-Apr-14 11:56N 38°12' E 015°33'0 0.0
2018-Apr-14 11:26N 38°12' E 015°33'0 0.0
2018-Apr-14 10:55N 38°12' E 015°33'0 0.0
2018-Apr-14 10:19N 38°12' E 015°33'0 0.0
2018-Apr-14 10:00N 38°12' E 015°33'0 0.0
2018-Apr-14 09:25N 38°12' E 015°33'0 0.0
2018-Apr-14 09:01N 38°12' E 015°33'0 0.0
2018-Apr-14 08:30N 38°12' E 015°33'0 0.0
2018-Apr-14 08:00N 38°12' E 015°33'0 0.0
2018-Apr-14 07:30N 38°12' E 015°33'0 0.0
2018-Apr-14 07:00N 38°12' E 015°33'0 0.0
2018-Apr-14 06:29N 38°12' E 015°33'0 0.0
2018-Apr-14 05:59N 38°12' E 015°33'0 0.0
2018-Apr-14 05:30N 38°12' E 015°34'2 3.4
2018-Apr-14 05:00N 38°13' E 015°35'612.7
2018-Apr-14 04:30N 38°18' E 015°40'612.3
2018-Apr-14 04:00N 38°21' E 015°34'714.6
2018-Apr-14 03:31N 38°20' E 015°25'815.6
2018-Apr-14 03:00N 38°19' E 015°15'815.7
2018-Apr-14 02:30N 38°18' E 015°05'815.4
2018-Apr-14 02:00N 38°18' E 014°55'815.9
2018-Apr-14 01:30N 38°18' E 014°45'816.9
2018-Apr-14 01:00N 38°19' E 014°34'4419.4
2018-Apr-13 22:46N 38°22' E 013°39'621.8
2018-Apr-13 22:30N 38°22' E 013°32'1020.6
2018-Apr-13 22:00N 38°23' E 013°18'1019.8
2018-Apr-13 21:30N 38°24' E 013°06'1019.4
2018-Apr-13 21:00N 38°24' E 012°54'13918.9
2018-Apr-13 13:39N 38°36' E 009°56'719.0
2018-Apr-13 13:17N 38°37' E 009°47'619.2
2018-Apr-13 13:00N 38°38' E 009°40'30819.7
2018-Apr-12 21:20N 39°05' E 003°06'1817.8
2018-Apr-12 20:18N 39°16' E 002°47'619.7
2018-Apr-12 20:00N 39°21' E 002°43'1019.3
2018-Apr-12 19:30N 39°30' E 002°39'3 6.7
2018-Apr-12 19:00N 39°33' E 002°38'0 0.0
2018-Apr-12 18:30N 39°33' E 002°38'0 0.0
2018-Apr-12 17:57N 39°33' E 002°38'0 0.0
2018-Apr-12 17:26N 39°33' E 002°38'0 0.0
2018-Apr-12 16:59N 39°33' E 002°38'0 0.0
2018-Apr-12 16:26N 39°33' E 002°38'0 0.0
2018-Apr-12 15:59N 39°33' E 002°38'0 0.0
2018-Apr-12 15:26N 39°33' E 002°38'0 0.0
2018-Apr-12 14:55N 39°33' E 002°38'0 0.0
2018-Apr-12 14:28N 39°33' E 002°38'0 0.0
2018-Apr-12 13:55N 39°33' E 002°38'0 0.0
2018-Apr-12 13:28N 39°33' E 002°38'0 0.0
2018-Apr-12 12:58N 39°33' E 002°38'0 0.0
2018-Apr-12 12:30N 39°33' E 002°38'0 0.0
2018-Apr-12 12:00N 39°33' E 002°38'0 0.0
2018-Apr-12 11:30N 39°33' E 002°38'0 0.0
2018-Apr-12 11:00N 39°33' E 002°38'0 0.0
2018-Apr-12 10:29N 39°33' E 002°38'0 0.0
2018-Apr-12 09:59N 39°33' E 002°38'0 0.0
2018-Apr-12 09:29N 39°33' E 002°38'0 0.0
2018-Apr-12 08:56N 39°33' E 002°38'0 0.0
2018-Apr-12 08:29N 39°33' E 002°38'0 0.0
2018-Apr-12 07:58N 39°33' E 002°38'0 0.0
2018-Apr-12 07:28N 39°33' E 002°38'0 0.0
2018-Apr-12 06:58N 39°33' E 002°38'0 0.0
2018-Apr-12 06:29N 39°33' E 002°38'1 2.5
2018-Apr-12 06:00N 39°32' E 002°39'713.0
2018-Apr-12 05:30N 39°27' E 002°34'714.7
2018-Apr-12 05:00N 39°26' E 002°25'12316.9
2018-Apr-11 21:46N 39°25' W 000°14'311.4
2018-Apr-11 21:27N 39°27' W 000°18'1 1.0
2018-Apr-11 20:43N 39°28' W 000°18'0 0.0
2018-Apr-11 19:48N 39°28' W 000°18'0 0.0
2018-Apr-11 19:27N 39°28' W 000°18'0 0.0
2018-Apr-11 19:00N 39°28' W 000°18'0 0.0
2018-Apr-11 18:27N 39°28' W 000°18'0 0.0
2018-Apr-11 17:57N 39°28' W 000°18'0 0.0
2018-Apr-11 17:29N 39°28' W 000°18'0 0.0
2018-Apr-11 16:56N 39°28' W 000°18'0 0.0
2018-Apr-11 16:26N 39°28' W 000°18'0 0.0
2018-Apr-11 15:56N 39°28' W 000°18'0 0.0
2018-Apr-11 15:29N 39°28' W 000°18'0 0.0
2018-Apr-11 14:55N 39°28' W 000°18'0 0.0
2018-Apr-11 14:25N 39°28' W 000°18'0 0.0
2018-Apr-11 13:55N 39°28' W 000°18'0 0.0
2018-Apr-11 13:22N 39°28' W 000°18'0 0.0
2018-Apr-11 13:00N 39°28' W 000°18'0 0.0
2018-Apr-11 12:24N 39°28' W 000°18'0 0.0
2018-Apr-11 12:00N 39°28' W 000°18'0 0.0
2018-Apr-11 11:30N 39°28' W 000°18'0 0.0
2018-Apr-11 11:00N 39°28' W 000°18'0 0.0
2018-Apr-11 10:23N 39°28' W 000°18'0 0.0
2018-Apr-11 09:59N 39°28' W 000°18'0 0.0
2018-Apr-11 09:29N 39°28' W 000°18'0 0.0
2018-Apr-11 08:59N 39°28' W 000°18'0 0.0
2018-Apr-11 08:29N 39°28' W 000°18'0 0.0
2018-Apr-11 07:58N 39°28' W 000°18'0 0.0
2018-Apr-11 07:28N 39°28' W 000°18'0 0.0
2018-Apr-11 06:52N 39°28' W 000°18'0 0.0
2018-Apr-11 06:30N 39°28' W 000°18'1 2.5
2018-Apr-11 06:00N 39°26' W 000°18'14012.2
2018-Apr-10 18:35N 40°57' E 002°01'213.8
2018-Apr-10 18:24N 40°59' E 002°04'613.9
2018-Apr-10 18:00N 41°02' E 002°10'713.2
2018-Apr-10 17:29N 41°09' E 002°11'613.2
2018-Apr-10 17:01N 41°15' E 002°11'510.8
2018-Apr-10 16:30N 41°21' E 002°10'1 1.2
2018-Apr-10 15:43N 41°22' E 002°11'0 0.0
2018-Apr-10 15:13N 41°22' E 002°11'0 0.0
2018-Apr-10 14:55N 41°22' E 002°11'0 0.0
2018-Apr-10 14:24N 41°22' E 002°11'0 0.0
2018-Apr-10 13:54N 41°22' E 002°11'0 0.0
2018-Apr-10 12:24N 41°22' E 002°11'0 0.0
2018-Apr-10 06:33N 41°22' E 002°11'0 0.0
2018-Apr-10 06:30N 41°22' E 002°11'1 2.8
2018-Apr-10 06:00N 41°20' E 002°10'4 7.6
2018-Apr-10 05:30N 41°17' E 002°13'5 9.2
2018-Apr-10 05:00N 41°20' E 002°18'612.8
2018-Apr-10 04:30N 41°23' E 002°25'16014.5
2018-Apr-09 17:27N 43°11' E 005°05'614.0
2018-Apr-09 17:00N 43°16' E 005°09'714.0
2018-Apr-09 16:30N 43°20' E 005°17'2 3.1
2018-Apr-09 15:48N 43°21' E 005°20'0 0.0
2018-Apr-09 15:27N 43°21' E 005°20'0 0.0
2018-Apr-09 14:35N 43°21' E 005°20'0 0.0
2018-Apr-09 14:20N 43°21' E 005°20'0 0.0
2018-Apr-09 13:14N 43°21' E 005°20'0 0.0
2018-Apr-09 12:56N 43°21' E 005°20'0 0.0
2018-Apr-09 12:07N 43°21' E 005°20'0 0.0
2018-Apr-09 10:25N 43°21' E 005°20'0 0.0
2018-Apr-09 09:54N 43°21' E 005°20'0 0.0
2018-Apr-09 09:21N 43°21' E 005°20'0 0.0
2018-Apr-09 09:00N 43°21' E 005°20'0 0.0
2018-Apr-09 07:57N 43°21' E 005°20'  
Track history (hours):
 
Tides and Currents Weather Stations Pressure Air Temp Water Temp Dewpoint Dewpoint Depression Visibility Wind Speed Wind Dir Waves Ship Positions

MSC Orchestra

Last reported at 2018-Apr-19 06:59 UTC. Time now 2018-Apr-19 11:27 UTC.
Position N 43°21' E 005°20'.

Length 294 m; draft 7.8 m.

Type: Ship. MMSI: 372497000.

Date/timePositionNaut miles runAvg speedWind from/ knotsBaromVisibWave heightAir tempDewpointWater temp
2018-Apr-19 06:59N 43°21' E 005°20'0 0.0
2018-Apr-19 05:28N 43°21' E 005°20'0 0.2
2018-Apr-19 04:59N 43°21' E 005°20'2 3.4
2018-Apr-19 04:30N 43°21' E 005°18'611.7
2018-Apr-19 04:00N 43°15' E 005°15'8513.4
2018-Apr-18 21:42N 43°09' E 007°11'318.3
2018-Apr-18 21:30N 43°12' E 007°14'918.5
2018-Apr-18 21:00N 43°17' E 007°24'1018.1
2018-Apr-18 20:27N 43°23' E 007°36'1518.6
2018-Apr-18 19:39N 43°31' E 007°53'318.7
2018-Apr-18 19:29N 43°33' E 007°57'918.4
2018-Apr-18 19:00N 43°38' E 008°07'1018.6
2018-Apr-18 18:29N 43°43' E 008°18'918.8
2018-Apr-18 18:00N 43°50' E 008°26'918.8
2018-Apr-18 17:30N 43°58' E 008°34'918.4
2018-Apr-18 17:00N 44°05' E 008°42'918.6
2018-Apr-18 16:30N 44°12' E 008°50'918.2
2018-Apr-18 16:00N 44°19' E 008°57'611.0
2018-Apr-18 15:30N 44°24' E 008°55'0 0.3
2018-Apr-18 14:55N 44°25' E 008°55'0 0.0
2018-Apr-18 14:30N 44°25' E 008°55'0 0.0
2018-Apr-18 14:00N 44°25' E 008°55'0 0.0
2018-Apr-18 13:30N 44°25' E 008°55'0 0.0
2018-Apr-18 13:00N 44°25' E 008°55'0 0.0
2018-Apr-18 12:30N 44°25' E 008°55'0 0.0
2018-Apr-18 11:59N 44°25' E 008°55'0 0.0
2018-Apr-18 11:29N 44°25' E 008°55'0 0.0
2018-Apr-18 10:59N 44°25' E 008°55'0 0.0
2018-Apr-18 10:29N 44°25' E 008°55'0 0.0
2018-Apr-18 09:58N 44°25' E 008°55'0 0.0
2018-Apr-18 09:28N 44°25' E 008°55'0 0.0
2018-Apr-18 08:58N 44°25' E 008°55'0 0.0
2018-Apr-18 08:28N 44°25' E 008°55'0 0.0
2018-Apr-18 07:58N 44°25' E 008°55'0 0.0
2018-Apr-18 07:30N 44°25' E 008°55'0 0.0
2018-Apr-18 07:00N 44°25' E 008°55'0 0.0
2018-Apr-18 06:30N 44°25' E 008°55'1 1.1
2018-Apr-18 06:00N 44°24' E 008°55'2 3.9
2018-Apr-18 05:30N 44°23' E 008°57'4 8.7
2018-Apr-18 05:00N 44°19' E 008°60'4 9.0
2018-Apr-18 04:30N 44°15' E 009°03'5 9.4
2018-Apr-18 04:00N 44°11' E 009°06'5 9.5
2018-Apr-18 03:30N 44°07' E 009°10'4 7.6
2018-Apr-18 03:00N 44°04' E 009°12'4 7.3
2018-Apr-18 02:30N 44°00' E 009°15'4 7.4
2018-Apr-18 02:00N 43°57' E 009°17'4 7.7
2018-Apr-18 01:30N 43°54' E 009°20'4 7.7
2018-Apr-18 01:00N 43°50' E 009°22'4 7.9
2018-Apr-18 00:30N 43°47' E 009°25'4 8.0
2018-Apr-18 00:00N 43°44' E 009°28'4 7.9
2018-Apr-17 23:30N 43°40' E 009°31'4 7.9
2018-Apr-17 23:00N 43°37' E 009°34'4 7.5
2018-Apr-17 22:30N 43°34' E 009°36'4 7.4
2018-Apr-17 22:00N 43°30' E 009°39'4 7.3
2018-Apr-17 21:30N 43°27' E 009°42'4 7.7
2018-Apr-17 21:00N 43°24' E 009°44'4 7.9
2018-Apr-17 20:30N 43°21' E 009°47'4 7.3
2018-Apr-17 20:00N 43°18' E 009°51'4 7.3
2018-Apr-17 19:30N 43°19' E 009°56'4 7.7
2018-Apr-17 19:00N 43°20' E 010°00'4 7.8
2018-Apr-17 18:30N 43°23' E 010°04'4 7.7
2018-Apr-17 18:00N 43°26' E 010°07'4 8.0
2018-Apr-17 17:30N 43°29' E 010°10'4 7.7
2018-Apr-17 17:00N 43°32' E 010°15'3 4.8
2018-Apr-17 16:28N 43°33' E 010°18'0 0.0
2018-Apr-17 16:00N 43°33' E 010°18'0 0.0
2018-Apr-17 15:30N 43°33' E 010°18'0 0.0
2018-Apr-17 15:00N 43°33' E 010°18'0 0.0
2018-Apr-17 14:30N 43°33' E 010°18'0 0.0
2018-Apr-17 13:59N 43°33' E 010°18'0 0.0
2018-Apr-17 13:29N 43°33' E 010°18'0 0.0
2018-Apr-17 12:59N 43°33' E 010°18'0 0.0
2018-Apr-17 12:29N 43°33' E 010°18'0 0.0
2018-Apr-17 11:59N 43°33' E 010°18'0 0.0
2018-Apr-17 11:28N 43°33' E 010°18'0 0.0
2018-Apr-17 10:58N 43°33' E 010°18'0 0.0
2018-Apr-17 10:28N 43°33' E 010°18'0 0.0
2018-Apr-17 09:58N 43°33' E 010°18'0 0.0
2018-Apr-17 09:31N 43°33' E 010°18'0 0.0
2018-Apr-17 08:57N 43°33' E 010°18'0 0.0
2018-Apr-17 08:30N 43°33' E 010°18'0 0.0
2018-Apr-17 08:00N 43°33' E 010°18'0 0.0
2018-Apr-17 07:30N 43°33' E 010°18'0 0.0
2018-Apr-17 06:59N 43°33' E 010°18'0 0.0
2018-Apr-17 06:29N 43°33' E 010°18'0 0.0
2018-Apr-17 05:59N 43°33' E 010°18'0 0.4
2018-Apr-17 05:31N 43°33' E 010°18'3 6.8
2018-Apr-17 05:00N 43°31' E 010°15'510.8
2018-Apr-17 04:30N 43°26' E 010°11'611.6
2018-Apr-17 04:01N 43°20' E 010°10'713.9
2018-Apr-17 03:30N 43°13' E 010°08'713.7
2018-Apr-17 03:00N 43°07' E 010°06'713.6
2018-Apr-17 02:30N 42°60' E 010°04'612.9
2018-Apr-17 02:00N 42°54' E 010°03'713.4
2018-Apr-17 01:30N 42°47' E 010°02'713.1
2018-Apr-17 01:01N 42°41' E 010°06'913.8
2018-Apr-17 00:22N 42°35' E 010°15'513.5
2018-Apr-17 00:00N 42°32' E 010°19'713.5
2018-Apr-16 23:29N 42°27' E 010°27'713.6
2018-Apr-16 22:59N 42°22' E 010°33'713.6
2018-Apr-16 22:30N 42°18' E 010°39'814.5
2018-Apr-16 21:59N 42°11' E 010°44'713.6
2018-Apr-16 21:27N 42°04' E 010°48'512.1
2018-Apr-16 21:00N 42°01' E 010°54'612.0
2018-Apr-16 20:30N 41°60' E 011°02'133 5.4
2018-Apr-15 19:50N 40°43' E 013°26'513.5
2018-Apr-15 19:30N 40°41' E 013°32'813.5
2018-Apr-15 18:54N 40°39' E 013°43'513.3
2018-Apr-15 18:30N 40°38' E 013°49'713.3
2018-Apr-15 18:00N 40°37' E 013°58'612.8
2018-Apr-15 17:30N 40°37' E 014°06'713.3
2018-Apr-15 17:00N 40°42' E 014°11'713.1
2018-Apr-15 16:30N 40°48' E 014°16'3 5.5
2018-Apr-15 16:00N 40°50' E 014°16'0 0.0
2018-Apr-15 15:24N 40°50' E 014°16'0 0.0
2018-Apr-15 14:59N 40°50' E 014°16'0 0.0
2018-Apr-15 14:29N 40°50' E 014°16'0 0.0
2018-Apr-15 13:59N 40°50' E 014°16'0 0.0
2018-Apr-15 13:26N 40°50' E 014°16'0 0.0
2018-Apr-15 12:52N 40°50' E 014°16'0 0.0
2018-Apr-15 12:28N 40°50' E 014°16'0 0.0
2018-Apr-15 11:58N 40°50' E 014°16'0 0.0
2018-Apr-15 11:25N 40°50' E 014°16'0 0.0
2018-Apr-15 10:55N 40°50' E 014°16'0 0.0
2018-Apr-15 10:30N 40°50' E 014°16'0 0.0
2018-Apr-15 10:00N 40°50' E 014°16'0 0.0
2018-Apr-15 09:30N 40°50' E 014°16'0 0.0
2018-Apr-15 09:00N 40°50' E 014°16'0 0.0
2018-Apr-15 08:24N 40°50' E 014°16'0 0.0
2018-Apr-15 07:53N 40°50' E 014°16'0 0.0
2018-Apr-15 07:20N 40°50' E 014°16'0 0.0
2018-Apr-15 06:59N 40°50' E 014°16'0 0.0
2018-Apr-15 06:26N 40°50' E 014°16'0 0.0
2018-Apr-15 06:00N 40°50' E 014°16'0 0.3
2018-Apr-15 05:30N 40°50' E 014°16'2 3.0
2018-Apr-15 05:00N 40°49' E 014°17'612.0
2018-Apr-15 04:30N 40°44' E 014°14'713.7
2018-Apr-15 04:00N 40°38' E 014°08'612.0
2018-Apr-15 03:30N 40°32' E 014°07'713.5
2018-Apr-15 03:00N 40°26' E 014°12'713.6
2018-Apr-15 02:30N 40°20' E 014°16'713.6
2018-Apr-15 02:00N 40°14' E 014°20'713.7
2018-Apr-15 01:29N 40°08' E 014°24'713.5
2018-Apr-15 00:59N 40°02' E 014°29'7414.5
2018-Apr-14 19:53N 38°57' E 015°15'614.1
2018-Apr-14 19:27N 38°52' E 015°18'614.4
2018-Apr-14 19:00N 38°46' E 015°23'815.2
2018-Apr-14 18:30N 38°40' E 015°28'815.6
2018-Apr-14 18:00N 38°33' E 015°33'815.5
2018-Apr-14 17:30N 38°26' E 015°38'815.3
2018-Apr-14 17:00N 38°20' E 015°43'713.1
2018-Apr-14 16:30N 38°15' E 015°39'5 9.2
2018-Apr-14 15:57N 38°12' E 015°33'0 0.0
2018-Apr-14 15:27N 38°12' E 015°33'0 0.0
2018-Apr-14 14:57N 38°12' E 015°33'0 0.0
2018-Apr-14 14:27N 38°12' E 015°33'0 0.0
2018-Apr-14 13:57N 38°12' E 015°33'0 0.0
2018-Apr-14 13:26N 38°12' E 015°33'0 0.0
2018-Apr-14 12:56N 38°12' E 015°33'0 0.0
2018-Apr-14 12:20N 38°12' E 015°33'0 0.0
2018-Apr-14 11:56N 38°12' E 015°33'0 0.0
2018-Apr-14 11:26N 38°12' E 015°33'0 0.0
2018-Apr-14 10:55N 38°12' E 015°33'0 0.0
2018-Apr-14 10:19N 38°12' E 015°33'0 0.0
2018-Apr-14 10:00N 38°12' E 015°33'0 0.0
2018-Apr-14 09:25N 38°12' E 015°33'0 0.0
2018-Apr-14 09:01N 38°12' E 015°33'0 0.0
2018-Apr-14 08:30N 38°12' E 015°33'0 0.0
2018-Apr-14 08:00N 38°12' E 015°33'0 0.0
2018-Apr-14 07:30N 38°12' E 015°33'0 0.0
2018-Apr-14 07:00N 38°12' E 015°33'0 0.0
2018-Apr-14 06:29N 38°12' E 015°33'0 0.0
2018-Apr-14 05:59N 38°12' E 015°33'0 0.0
2018-Apr-14 05:30N 38°12' E 015°34'2 3.4
2018-Apr-14 05:00N 38°13' E 015°35'612.7
2018-Apr-14 04:30N 38°18' E 015°40'612.3
2018-Apr-14 04:00N 38°21' E 015°34'714.6
2018-Apr-14 03:31N 38°20' E 015°25'815.6
2018-Apr-14 03:00N 38°19' E 015°15'815.7
2018-Apr-14 02:30N 38°18' E 015°05'815.4
2018-Apr-14 02:00N 38°18' E 014°55'815.9
2018-Apr-14 01:30N 38°18' E 014°45'816.9
2018-Apr-14 01:00N 38°19' E 014°34'4419.4
2018-Apr-13 22:46N 38°22' E 013°39'621.8
2018-Apr-13 22:30N 38°22' E 013°32'1020.6
2018-Apr-13 22:00N 38°23' E 013°18'1019.8
2018-Apr-13 21:30N 38°24' E 013°06'1019.4
2018-Apr-13 21:00N 38°24' E 012°54'13918.9
2018-Apr-13 13:39N 38°36' E 009°56'719.0
2018-Apr-13 13:17N 38°37' E 009°47'619.2
2018-Apr-13 13:00N 38°38' E 009°40'30819.7
2018-Apr-12 21:20N 39°05' E 003°06'1817.8
2018-Apr-12 20:18N 39°16' E 002°47'619.7
2018-Apr-12 20:00N 39°21' E 002°43'1019.3
2018-Apr-12 19:30N 39°30' E 002°39'3 6.7
2018-Apr-12 19:00N 39°33' E 002°38'0 0.0
2018-Apr-12 18:30N 39°33' E 002°38'0 0.0
2018-Apr-12 17:57N 39°33' E 002°38'0 0.0
2018-Apr-12 17:26N 39°33' E 002°38'0 0.0
2018-Apr-12 16:59N 39°33' E 002°38'0 0.0
2018-Apr-12 16:26N 39°33' E 002°38'0 0.0
2018-Apr-12 15:59N 39°33' E 002°38'0 0.0
2018-Apr-12 15:26N 39°33' E 002°38'0 0.0
2018-Apr-12 14:55N 39°33' E 002°38'0 0.0
2018-Apr-12 14:28N 39°33' E 002°38'0 0.0
2018-Apr-12 13:55N 39°33' E 002°38'0 0.0
2018-Apr-12 13:28N 39°33' E 002°38'0 0.0
2018-Apr-12 12:58N 39°33' E 002°38'0 0.0
2018-Apr-12 12:30N 39°33' E 002°38'0 0.0
2018-Apr-12 12:00N 39°33' E 002°38'0 0.0
2018-Apr-12 11:30N 39°33' E 002°38'0 0.0
2018-Apr-12 11:00N 39°33' E 002°38'0 0.0
2018-Apr-12 10:29N 39°33' E 002°38'0 0.0
2018-Apr-12 09:59N 39°33' E 002°38'0 0.0
2018-Apr-12 09:29N 39°33' E 002°38'0 0.0
2018-Apr-12 08:56N 39°33' E 002°38'0 0.0
2018-Apr-12 08:29N 39°33' E 002°38'0 0.0
2018-Apr-12 07:58N 39°33' E 002°38'0 0.0
2018-Apr-12 07:28N 39°33' E 002°38'0 0.0
2018-Apr-12 06:58N 39°33' E 002°38'0 0.0
2018-Apr-12 06:29N 39°33' E 002°38'1 2.5
2018-Apr-12 06:00N 39°32' E 002°39'713.0
2018-Apr-12 05:30N 39°27' E 002°34'714.7
2018-Apr-12 05:00N 39°26' E 002°25'12316.9
2018-Apr-11 21:46N 39°25' W 000°14'311.4
2018-Apr-11 21:27N 39°27' W 000°18'1 1.0
2018-Apr-11 20:43N 39°28' W 000°18'0 0.0
2018-Apr-11 19:48N 39°28' W 000°18'0 0.0
2018-Apr-11 19:27N 39°28' W 000°18'0 0.0
2018-Apr-11 19:00N 39°28' W 000°18'0 0.0
2018-Apr-11 18:27N 39°28' W 000°18'0 0.0
2018-Apr-11 17:57N 39°28' W 000°18'0 0.0
2018-Apr-11 17:29N 39°28' W 000°18'0 0.0
2018-Apr-11 16:56N 39°28' W 000°18'0 0.0
2018-Apr-11 16:26N 39°28' W 000°18'0 0.0
2018-Apr-11 15:56N 39°28' W 000°18'0 0.0
2018-Apr-11 15:29N 39°28' W 000°18'0 0.0
2018-Apr-11 14:55N 39°28' W 000°18'0 0.0
2018-Apr-11 14:25N 39°28' W 000°18'0 0.0
2018-Apr-11 13:55N 39°28' W 000°18'0 0.0
2018-Apr-11 13:22N 39°28' W 000°18'0 0.0
2018-Apr-11 13:00N 39°28' W 000°18'0 0.0
2018-Apr-11 12:24N 39°28' W 000°18'0 0.0
2018-Apr-11 12:00N 39°28' W 000°18'0 0.0
2018-Apr-11 11:30N 39°28' W 000°18'0 0.0
2018-Apr-11 11:00N 39°28' W 000°18'0 0.0
2018-Apr-11 10:23N 39°28' W 000°18'0 0.0
2018-Apr-11 09:59N 39°28' W 000°18'0 0.0
2018-Apr-11 09:29N 39°28' W 000°18'0 0.0
2018-Apr-11 08:59N 39°28' W 000°18'0 0.0
2018-Apr-11 08:29N 39°28' W 000°18'0 0.0
2018-Apr-11 07:58N 39°28' W 000°18'0 0.0
2018-Apr-11 07:28N 39°28' W 000°18'0 0.0
2018-Apr-11 06:52N 39°28' W 000°18'0 0.0
2018-Apr-11 06:30N 39°28' W 000°18'1 2.5
2018-Apr-11 06:00N 39°26' W 000°18'14012.2
2018-Apr-10 18:35N 40°57' E 002°01'213.8
2018-Apr-10 18:24N 40°59' E 002°04'613.9
2018-Apr-10 18:00N 41°02' E 002°10'713.2
2018-Apr-10 17:29N 41°09' E 002°11'613.2
2018-Apr-10 17:01N 41°15' E 002°11'510.8
2018-Apr-10 16:30N 41°21' E 002°10'1 1.2
2018-Apr-10 15:43N 41°22' E 002°11'0 0.0
2018-Apr-10 15:13N 41°22' E 002°11'0 0.0
2018-Apr-10 14:55N 41°22' E 002°11'0 0.0
2018-Apr-10 14:24N 41°22' E 002°11'0 0.0
2018-Apr-10 13:54N 41°22' E 002°11'0 0.0
2018-Apr-10 12:24N 41°22' E 002°11'0 0.0
2018-Apr-10 06:33N 41°22' E 002°11'0 0.0
2018-Apr-10 06:30N 41°22' E 002°11'1 2.8
2018-Apr-10 06:00N 41°20' E 002°10'4 7.6
2018-Apr-10 05:30N 41°17' E 002°13'5 9.2
2018-Apr-10 05:00N 41°20' E 002°18'612.8
2018-Apr-10 04:30N 41°23' E 002°25'16014.5
2018-Apr-09 17:27N 43°11' E 005°05'614.0
2018-Apr-09 17:00N 43°16' E 005°09'714.0
2018-Apr-09 16:30N 43°20' E 005°17'2 3.1
2018-Apr-09 15:48N 43°21' E 005°20'0 0.0
2018-Apr-09 15:27N 43°21' E 005°20'0 0.0
2018-Apr-09 14:35N 43°21' E 005°20'0 0.0
2018-Apr-09 14:20N 43°21' E 005°20'0 0.0
2018-Apr-09 13:14N 43°21' E 005°20'0 0.0
2018-Apr-09 12:56N 43°21' E 005°20'0 0.0
2018-Apr-09 12:07N 43°21' E 005°20'0 0.0
2018-Apr-09 10:25N 43°21' E 005°20'0 0.0
2018-Apr-09 09:54N 43°21' E 005°20'0 0.0
2018-Apr-09 09:21N 43°21' E 005°20'0 0.0
2018-Apr-09 09:00N 43°21' E 005°20'0 0.0
2018-Apr-09 07:57N 43°21' E 005°20'  

Dump ship's entire track history